createdAt,value
2023-04-10T00:00:38.308Z,3.72
2023-04-10T00:01:38.122Z,3.66
2023-04-10T00:02:38.215Z,3.72
2023-04-10T00:03:38.249Z,3.71
2023-04-10T00:04:37.946Z,3.65
2023-04-10T00:05:58.750Z,3.64
2023-04-10T00:06:37.686Z,3.72
2023-04-10T00:07:37.603Z,3.72
2023-04-10T00:08:37.526Z,3.71
2023-04-10T00:09:37.433Z,3.61
2023-04-10T00:10:37.344Z,3.62
2023-04-10T00:11:58.250Z,3.56
2023-04-10T00:12:37.198Z,3.50
2023-04-10T00:13:37.203Z,3.41
2023-04-10T00:14:37.014Z,3.51
2023-04-10T00:15:36.917Z,3.48
2023-04-10T00:16:36.863Z,3.39
2023-04-10T00:17:57.805Z,3.32
2023-04-10T00:18:36.668Z,3.29
2023-04-10T00:19:36.595Z,3.17
2023-04-10T00:20:36.500Z,3.21
2023-04-10T00:21:36.418Z,3.17
2023-04-10T00:22:36.325Z,3.16
2023-04-10T00:23:57.227Z,3.13
2023-04-10T00:24:36.165Z,3.21
2023-04-10T00:25:36.097Z,3.13
2023-04-10T00:26:35.995Z,3.14
2023-04-10T00:27:35.913Z,3.10
2023-04-10T00:28:35.821Z,3.19
2023-04-10T00:29:56.714Z,3.03
2023-04-10T00:30:35.657Z,3.04
2023-04-10T00:31:35.624Z,3.03
2023-04-10T00:32:35.506Z,3.03
2023-04-10T00:33:35.413Z,3.03
2023-04-10T00:34:35.308Z,2.98
2023-04-10T00:35:56.246Z,2.95
2023-04-10T00:36:35.140Z,2.98
2023-04-10T00:37:35.071Z,2.98
2023-04-10T00:38:34.981Z,3.07
2023-04-10T00:39:34.898Z,3.09
2023-04-10T00:40:34.803Z,3.13
2023-04-10T00:41:55.713Z,3.13
2023-04-10T00:42:34.650Z,3.17
2023-04-10T00:43:34.562Z,3.13
2023-04-10T00:44:34.464Z,3.11
2023-04-10T00:45:34.449Z,3.07
2023-04-10T00:46:34.342Z,2.98
2023-04-10T00:47:55.227Z,3.03
2023-04-10T00:48:34.127Z,2.98
2023-04-10T00:49:34.060Z,2.91
2023-04-10T00:50:33.969Z,2.85
2023-04-10T00:51:33.877Z,2.84
2023-04-10T00:52:33.796Z,2.88
2023-04-10T00:53:54.902Z,2.88
2023-04-10T00:54:33.606Z,2.89
2023-04-10T00:55:33.542Z,2.85
2023-04-10T00:56:33.448Z,2.81
2023-04-10T00:57:33.378Z,2.78
2023-04-10T00:58:33.267Z,2.81
2023-04-10T00:59:54.168Z,2.77
2023-04-10T01:00:33.103Z,2.80
2023-04-10T01:01:33.059Z,2.81
2023-04-10T01:02:33.023Z,2.71
2023-04-10T01:03:33.142Z,2.70
2023-04-10T01:04:32.848Z,2.71
2023-04-10T01:05:53.655Z,2.70
2023-04-10T01:06:32.607Z,2.62
2023-04-10T01:07:32.518Z,2.59
2023-04-10T01:08:32.476Z,2.66
2023-04-10T01:09:32.345Z,2.71
2023-04-10T01:10:32.294Z,2.67
2023-04-10T01:11:53.172Z,2.66
2023-04-10T01:12:32.080Z,2.68
2023-04-10T01:13:32.006Z,2.81
2023-04-10T01:14:31.916Z,2.77
2023-04-10T01:15:31.830Z,2.78
2023-04-10T01:16:31.757Z,2.81
2023-04-10T01:17:52.694Z,2.86
2023-04-10T01:18:31.562Z,2.78
2023-04-10T01:19:31.481Z,2.80
2023-04-10T01:20:31.401Z,2.81
2023-04-10T01:21:31.321Z,2.77
2023-04-10T01:22:31.233Z,2.73
2023-04-10T01:23:52.324Z,2.75
2023-04-10T01:24:31.055Z,2.80
2023-04-10T01:25:30.969Z,2.73
2023-04-10T01:26:30.896Z,2.67
2023-04-10T01:27:30.821Z,2.56
2023-04-10T01:28:30.721Z,2.60
2023-04-10T01:29:51.675Z,2.44
2023-04-10T01:30:30.613Z,2.55
2023-04-10T01:31:30.468Z,2.38
2023-04-10T01:32:30.386Z,2.42
2023-04-10T01:33:30.305Z,2.37
2023-04-10T01:34:30.224Z,2.35
2023-04-10T01:35:51.129Z,2.34
2023-04-10T01:36:30.053Z,2.30
2023-04-10T01:37:29.954Z,2.44
2023-04-10T01:38:29.870Z,2.48
2023-04-10T01:39:29.777Z,2.41
2023-04-10T01:40:29.695Z,2.32
2023-04-10T01:41:50.601Z,2.42
2023-04-10T01:42:29.521Z,2.49
2023-04-10T01:43:29.452Z,2.42
2023-04-10T01:44:29.356Z,2.49
2023-04-10T01:45:29.331Z,2.50
2023-04-10T01:46:29.224Z,2.53
2023-04-10T01:47:50.110Z,2.42
2023-04-10T01:48:29.009Z,2.32
2023-04-10T01:49:28.929Z,2.19
2023-04-10T01:50:28.854Z,2.10
2023-04-10T01:51:28.769Z,2.06
2023-04-10T01:52:28.674Z,2.12
2023-04-10T01:53:49.573Z,2.14
2023-04-10T01:54:28.510Z,2.14
2023-04-10T01:55:28.441Z,2.21
2023-04-10T01:56:28.325Z,2.28
2023-04-10T01:57:28.245Z,2.31
2023-04-10T01:58:28.164Z,2.39
2023-04-10T01:59:49.089Z,2.37
2023-04-10T02:00:28.033Z,2.38
2023-04-10T02:01:30.360Z,2.44
2023-04-10T02:02:27.925Z,2.41
2023-04-10T02:03:27.936Z,2.46
2023-04-10T02:04:27.739Z,2.48
2023-04-10T02:05:48.540Z,2.52
2023-04-10T02:06:27.472Z,2.57
2023-04-10T02:07:27.398Z,2.50
2023-04-10T02:08:27.303Z,2.53
2023-04-10T02:09:27.226Z,2.50
2023-04-10T02:10:27.130Z,2.50
2023-04-10T02:11:48.028Z,2.46
2023-04-10T02:12:26.968Z,2.60
2023-04-10T02:13:26.904Z,2.53
2023-04-10T02:14:26.807Z,2.55
2023-04-10T02:15:26.715Z,2.63
2023-04-10T02:16:26.741Z,2.56
2023-04-10T02:17:47.552Z,2.57
2023-04-10T02:18:26.453Z,2.53
2023-04-10T02:19:26.398Z,2.59
2023-04-10T02:20:26.275Z,2.50
2023-04-10T02:21:26.197Z,2.53
2023-04-10T02:22:26.119Z,2.53
2023-04-10T02:23:47.026Z,2.55
2023-04-10T02:24:25.931Z,2.50
2023-04-10T02:25:25.863Z,2.53
2023-04-10T02:26:25.779Z,2.49
2023-04-10T02:27:25.680Z,2.38
2023-04-10T02:28:25.601Z,2.49
2023-04-10T02:29:46.496Z,2.42
2023-04-10T02:30:25.433Z,2.42
2023-04-10T02:31:25.408Z,2.35
2023-04-10T02:32:25.290Z,2.23
2023-04-10T02:33:25.172Z,2.12
2023-04-10T02:34:25.107Z,2.03
2023-04-10T02:35:46.006Z,1.99
2023-04-10T02:36:24.908Z,1.87
2023-04-10T02:37:24.838Z,1.94
2023-04-10T02:38:24.741Z,1.84
2023-04-10T02:39:24.661Z,1.95
2023-04-10T02:40:24.565Z,1.94
2023-04-10T02:41:45.466Z,1.95
2023-04-10T02:42:24.422Z,1.98
2023-04-10T02:43:24.331Z,2.09
2023-04-10T02:44:24.238Z,2.01
2023-04-10T02:45:24.149Z,2.13
2023-04-10T02:46:24.124Z,2.06
2023-04-10T02:47:45.034Z,2.05
2023-04-10T02:48:23.884Z,2.12
2023-04-10T02:49:23.797Z,2.10
2023-04-10T02:50:23.707Z,2.14
2023-04-10T02:51:23.636Z,2.02
2023-04-10T02:52:23.543Z,2.01
2023-04-10T02:53:44.444Z,1.92
2023-04-10T02:54:23.364Z,1.94
2023-04-10T02:55:23.292Z,1.98
2023-04-10T02:56:23.217Z,2.05
2023-04-10T02:57:23.125Z,2.12
2023-04-10T02:58:23.031Z,2.06
2023-04-10T02:59:43.917Z,2.02
2023-04-10T03:00:22.849Z,2.02
2023-04-10T03:01:22.796Z,2.03
2023-04-10T03:02:22.840Z,2.12
2023-04-10T03:03:22.880Z,2.09
2023-04-10T03:04:22.655Z,2.05
2023-04-10T03:05:43.407Z,2.13
2023-04-10T03:06:22.346Z,2.03
2023-04-10T03:07:22.272Z,2.01
2023-04-10T03:08:22.182Z,2.03
2023-04-10T03:09:22.118Z,2.03
2023-04-10T03:10:22.012Z,1.99
2023-04-10T03:11:42.897Z,2.06
2023-04-10T03:12:21.821Z,2.06
2023-04-10T03:13:21.745Z,1.94
2023-04-10T03:14:21.662Z,2.06
2023-04-10T03:15:21.577Z,1.99
2023-04-10T03:16:21.529Z,2.02
2023-04-10T03:17:42.416Z,2.09
2023-04-10T03:18:21.322Z,2.01
2023-04-10T03:19:21.232Z,1.92
2023-04-10T03:20:21.163Z,2.01
2023-04-10T03:21:21.085Z,1.83
2023-04-10T03:22:21.045Z,1.87
2023-04-10T03:23:41.868Z,1.82
2023-04-10T03:24:20.816Z,1.62
2023-04-10T03:25:20.726Z,1.66
2023-04-10T03:26:20.628Z,1.58
2023-04-10T03:27:20.549Z,1.58
2023-04-10T03:28:20.470Z,1.52
2023-04-10T03:29:41.373Z,1.54
2023-04-10T03:30:20.296Z,1.43
2023-04-10T03:31:20.237Z,1.44
2023-04-10T03:32:20.129Z,1.41
2023-04-10T03:33:20.105Z,1.43
2023-04-10T03:34:19.944Z,1.38
2023-04-10T03:35:40.893Z,1.41
2023-04-10T03:36:19.806Z,1.48
2023-04-10T03:37:19.692Z,1.47
2023-04-10T03:38:19.590Z,1.52
2023-04-10T03:39:19.510Z,1.50
2023-04-10T03:40:19.426Z,1.65
2023-04-10T03:41:40.331Z,1.54
2023-04-10T03:42:19.258Z,1.58
2023-04-10T03:43:19.176Z,1.59
2023-04-10T03:44:19.088Z,1.52
2023-04-10T03:45:19.010Z,1.55
2023-04-10T03:46:18.922Z,1.47
2023-04-10T03:47:39.816Z,1.52
2023-04-10T03:48:18.737Z,1.50
2023-04-10T03:49:18.662Z,1.52
2023-04-10T03:50:18.574Z,1.48
2023-04-10T03:51:18.480Z,1.58
2023-04-10T03:52:18.398Z,1.56
2023-04-10T03:53:39.291Z,1.61
2023-04-10T03:54:18.225Z,1.55
2023-04-10T03:55:18.136Z,1.58
2023-04-10T03:56:18.055Z,1.48
2023-04-10T03:57:17.964Z,1.44
2023-04-10T03:58:17.892Z,1.48
2023-04-10T03:59:39.106Z,1.43
2023-04-10T04:00:17.705Z,1.37
2023-04-10T04:01:17.626Z,1.36
2023-04-10T04:02:17.602Z,1.30
2023-04-10T04:03:17.648Z,1.30
2023-04-10T04:04:17.603Z,1.19
2023-04-10T04:05:38.267Z,1.20
2023-04-10T04:06:17.191Z,1.15
2023-04-10T04:07:17.116Z,1.16
2023-04-10T04:08:17.033Z,1.19
2023-04-10T04:09:16.957Z,1.16
2023-04-10T04:10:16.845Z,1.23
2023-04-10T04:11:37.737Z,1.18
2023-04-10T04:12:16.680Z,1.26
2023-04-10T04:13:16.608Z,1.26
2023-04-10T04:14:16.513Z,1.29
2023-04-10T04:15:16.415Z,1.29
2023-04-10T04:16:16.360Z,1.30
2023-04-10T04:17:37.253Z,1.34
2023-04-10T04:18:16.165Z,1.30
2023-04-10T04:19:16.117Z,1.41
2023-04-10T04:20:15.994Z,1.44
2023-04-10T04:21:15.911Z,1.40
2023-04-10T04:22:15.818Z,1.40
2023-04-10T04:23:36.697Z,1.36
2023-04-10T04:24:15.640Z,1.44
2023-04-10T04:25:15.554Z,1.46
2023-04-10T04:26:15.478Z,1.55
2023-04-10T04:27:15.381Z,1.48
2023-04-10T04:28:15.299Z,1.48
2023-04-10T04:29:36.191Z,1.48
2023-04-10T04:30:15.143Z,1.46
2023-04-10T04:31:15.042Z,1.37
2023-04-10T04:32:15.083Z,1.30
2023-04-10T04:33:14.882Z,1.23
2023-04-10T04:34:14.789Z,1.26
2023-04-10T04:35:35.679Z,1.16
2023-04-10T04:36:14.640Z,1.22
2023-04-10T04:37:14.528Z,1.10
2023-04-10T04:38:14.440Z,1.16
2023-04-10T04:39:14.363Z,1.22
2023-04-10T04:40:14.273Z,1.15
2023-04-10T04:41:35.164Z,1.12
2023-04-10T04:42:14.105Z,1.18
2023-04-10T04:43:14.016Z,1.15
2023-04-10T04:44:13.932Z,1.16
2023-04-10T04:45:13.840Z,1.16
2023-04-10T04:46:13.792Z,1.12
2023-04-10T04:47:34.687Z,1.11
2023-04-10T04:48:13.594Z,1.05
2023-04-10T04:49:13.504Z,1.07
2023-04-10T04:50:13.413Z,1.05
2023-04-10T04:51:13.329Z,1.15
2023-04-10T04:52:13.234Z,1.02
2023-04-10T04:53:34.114Z,1.16
2023-04-10T04:54:13.075Z,1.11
2023-04-10T04:55:12.977Z,1.18
2023-04-10T04:56:12.905Z,1.18
2023-04-10T04:57:12.796Z,1.19
2023-04-10T04:58:12.722Z,1.18
2023-04-10T04:59:33.615Z,1.12
2023-04-10T05:00:12.554Z,1.20
2023-04-10T05:01:12.475Z,1.26
2023-04-10T05:02:12.464Z,1.26
2023-04-10T05:03:12.418Z,1.26
2023-04-10T05:04:12.367Z,1.28
2023-04-10T05:05:33.102Z,1.28
2023-04-10T05:06:12.022Z,1.43
2023-04-10T05:07:11.947Z,1.38
2023-04-10T05:08:11.850Z,1.34
2023-04-10T05:09:11.759Z,1.36
2023-04-10T05:10:11.685Z,1.38
2023-04-10T05:11:32.568Z,1.34
2023-04-10T05:12:11.557Z,1.32
2023-04-10T05:13:11.426Z,1.40
2023-04-10T05:14:11.341Z,1.47
2023-04-10T05:15:11.244Z,1.43
2023-04-10T05:16:11.229Z,1.47
2023-04-10T05:17:32.127Z,1.52
2023-04-10T05:18:11.050Z,1.50
2023-04-10T05:19:10.903Z,1.50
2023-04-10T05:20:10.824Z,1.52
2023-04-10T05:21:10.728Z,1.62
2023-04-10T05:22:10.641Z,1.64
2023-04-10T05:23:31.533Z,1.56
2023-04-10T05:24:10.488Z,1.61
2023-04-10T05:25:10.382Z,1.55
2023-04-10T05:26:10.295Z,1.56
2023-04-10T05:27:10.224Z,1.59
2023-04-10T05:28:10.136Z,1.61
2023-04-10T05:29:31.042Z,1.61
2023-04-10T05:30:09.973Z,1.62
2023-04-10T05:31:09.995Z,1.76
2023-04-10T05:32:09.870Z,1.72
2023-04-10T05:33:09.704Z,1.82
2023-04-10T05:34:09.601Z,1.83
2023-04-10T05:35:30.512Z,1.80
2023-04-10T05:36:09.446Z,1.83
2023-04-10T05:37:09.367Z,1.82
2023-04-10T05:38:09.276Z,1.83
2023-04-10T05:39:09.176Z,1.84
2023-04-10T05:40:09.097Z,1.86
2023-04-10T05:41:30.035Z,1.84
2023-04-10T05:42:08.926Z,1.84
2023-04-10T05:43:08.832Z,1.83
2023-04-10T05:44:08.756Z,1.84
2023-04-10T05:45:08.668Z,1.84
2023-04-10T05:46:08.641Z,1.82
2023-04-10T05:47:29.531Z,1.80
2023-04-10T05:48:08.403Z,1.80
2023-04-10T05:49:08.320Z,1.87
2023-04-10T05:50:08.260Z,1.83
2023-04-10T05:51:08.139Z,1.87
2023-04-10T05:52:08.070Z,1.92
2023-04-10T05:53:28.967Z,1.90
2023-04-10T05:54:07.908Z,1.99
2023-04-10T05:55:07.805Z,1.99
2023-04-10T05:56:07.725Z,1.98
2023-04-10T05:57:07.631Z,2.05
2023-04-10T05:58:07.550Z,2.10
2023-04-10T05:59:28.454Z,2.09
2023-04-10T06:00:07.427Z,2.06
2023-04-10T06:01:07.304Z,2.19
2023-04-10T06:02:07.439Z,2.10
2023-04-10T06:03:07.273Z,2.17
2023-04-10T06:05:33.042Z,2.26
2023-04-10T06:06:08.292Z,2.37
2023-04-10T06:07:06.757Z,2.35
2023-04-10T06:08:06.706Z,2.44
2023-04-10T06:09:06.607Z,2.49
2023-04-10T06:10:06.539Z,2.53
2023-04-10T06:11:27.402Z,2.53
2023-04-10T06:12:06.338Z,2.57
2023-04-10T06:13:06.490Z,2.62
2023-04-10T06:14:06.167Z,2.70
2023-04-10T06:15:06.116Z,2.74
2023-04-10T06:16:06.056Z,2.84
2023-04-10T06:17:26.885Z,2.95
2023-04-10T06:18:05.837Z,2.96
2023-04-10T06:19:05.741Z,3.06
2023-04-10T06:20:05.657Z,3.21
2023-04-10T06:21:05.569Z,3.31
2023-04-10T06:22:05.480Z,3.32
2023-04-10T06:23:26.394Z,3.41
2023-04-10T06:24:05.310Z,3.44
2023-04-10T06:25:05.227Z,3.54
2023-04-10T06:26:05.142Z,3.62
2023-04-10T06:27:05.045Z,3.74
2023-04-10T06:28:04.959Z,3.72
2023-04-10T06:29:25.874Z,3.80
2023-04-10T06:30:04.817Z,3.90
2023-04-10T06:31:04.731Z,3.87
2023-04-10T06:32:04.635Z,3.97
2023-04-10T06:33:04.586Z,4.01
2023-04-10T06:34:04.461Z,4.08
2023-04-10T06:35:25.347Z,4.22
2023-04-10T06:36:04.379Z,4.20
2023-04-10T06:37:04.198Z,4.34
2023-04-10T06:38:04.122Z,4.32
2023-04-10T06:39:04.032Z,4.47
2023-04-10T06:40:03.970Z,4.56
2023-04-10T06:41:24.837Z,4.66
2023-04-10T06:42:03.791Z,4.65
2023-04-10T06:43:03.685Z,4.76
2023-04-10T06:44:03.811Z,4.76
2023-04-10T06:45:03.515Z,4.87
2023-04-10T06:46:03.438Z,4.92
2023-04-10T06:47:24.361Z,4.88
2023-04-10T06:48:03.367Z,4.95
2023-04-10T06:49:03.166Z,5.06
2023-04-10T06:50:03.096Z,5.17
2023-04-10T06:51:03.022Z,5.31
2023-04-10T06:52:02.926Z,5.28
2023-04-10T06:53:23.807Z,5.45
2023-04-10T06:54:02.754Z,5.53
2023-04-10T06:55:02.703Z,5.57
2023-04-10T06:56:03.377Z,5.59
2023-04-10T06:57:02.497Z,5.71
2023-04-10T06:58:02.416Z,5.81
2023-04-10T06:59:23.307Z,5.81
2023-04-10T07:00:02.240Z,6.06
2023-04-10T07:01:02.236Z,6.14
2023-04-10T07:02:02.114Z,6.21
2023-04-10T07:03:01.995Z,6.22
2023-04-10T07:04:01.930Z,6.30
2023-04-10T07:05:22.806Z,6.36
2023-04-10T07:06:01.742Z,6.47
2023-04-10T07:07:01.653Z,6.44
2023-04-10T07:08:01.565Z,6.54
2023-04-10T07:09:01.518Z,6.63
2023-04-10T07:10:01.479Z,6.69
2023-04-10T07:11:22.302Z,6.87
2023-04-10T07:12:01.229Z,6.78
2023-04-10T07:13:01.144Z,6.90
2023-04-10T07:14:01.063Z,6.93
2023-04-10T07:15:00.967Z,7.09
2023-04-10T07:16:00.934Z,7.23
2023-04-10T07:17:21.820Z,7.29
2023-04-10T07:18:00.773Z,7.26
2023-04-10T07:19:00.640Z,7.37
2023-04-10T07:20:00.546Z,7.37
2023-04-10T07:21:00.477Z,7.42
2023-04-10T07:22:00.384Z,7.55
2023-04-10T07:23:21.273Z,7.57
2023-04-10T07:24:00.207Z,7.67
2023-04-10T07:25:00.159Z,7.82
2023-04-10T07:26:00.053Z,7.91
2023-04-10T07:26:59.971Z,7.96
2023-04-10T07:27:59.886Z,8.03
2023-04-10T07:29:20.778Z,8.06
2023-04-10T07:29:59.715Z,8.14
2023-04-10T07:30:59.638Z,8.14
2023-04-10T07:31:59.715Z,8.24
2023-04-10T07:32:59.597Z,8.22
2023-04-10T07:33:59.401Z,8.25
2023-04-10T07:35:20.297Z,8.42
2023-04-10T07:35:59.281Z,8.58
2023-04-10T07:36:59.150Z,8.65
2023-04-10T07:37:59.044Z,8.79
2023-04-10T07:38:59.004Z,8.93
2023-04-10T07:39:58.903Z,9.06
2023-04-10T07:41:19.803Z,9.19
2023-04-10T07:41:58.711Z,9.22
2023-04-10T07:42:58.638Z,9.34
2023-04-10T07:43:58.546Z,9.40
2023-04-10T07:44:58.518Z,9.63
2023-04-10T07:45:58.471Z,9.71
2023-04-10T07:47:19.339Z,9.80
2023-04-10T07:47:58.224Z,9.86
2023-04-10T07:48:58.186Z,9.83
2023-04-10T07:49:58.092Z,9.98
2023-04-10T07:50:57.990Z,9.97
2023-04-10T07:51:57.880Z,9.96
2023-04-10T07:53:18.801Z,10.13
2023-04-10T07:53:57.735Z,10.08
2023-04-10T07:54:57.638Z,10.04
2023-04-10T07:55:57.576Z,10.07
2023-04-10T07:56:57.475Z,10.16
2023-04-10T07:57:57.397Z,10.37
2023-04-10T07:59:18.286Z,10.40
2023-04-10T07:59:57.218Z,10.56
2023-04-10T08:00:57.151Z,10.60
2023-04-10T08:01:57.098Z,10.60
2023-04-10T08:02:57.244Z,10.67
2023-04-10T08:03:57.110Z,10.80
2023-04-10T08:05:17.839Z,10.92
2023-04-10T08:05:56.725Z,11.06
2023-04-10T08:06:56.651Z,11.11
2023-04-10T08:07:56.570Z,11.10
2023-04-10T08:08:56.751Z,11.31
2023-04-10T08:09:56.437Z,11.34
2023-04-10T08:11:17.304Z,11.36
2023-04-10T08:11:56.235Z,11.51
2023-04-10T08:12:56.176Z,11.61
2023-04-10T08:13:56.091Z,11.64
2023-04-10T08:14:56.001Z,11.65
2023-04-10T08:15:55.915Z,11.65
2023-04-10T08:17:16.834Z,11.60
2023-04-10T08:17:55.778Z,11.65
2023-04-10T08:18:55.917Z,11.67
2023-04-10T08:19:55.595Z,11.87
2023-04-10T08:20:55.511Z,11.83
2023-04-10T08:21:55.430Z,12.02
2023-04-10T08:23:20.302Z,12.03
2023-04-10T08:23:55.275Z,12.18
2023-04-10T08:24:55.185Z,12.12
2023-04-10T08:25:55.102Z,12.16
2023-04-10T08:26:55.068Z,12.31
2023-04-10T08:27:54.945Z,12.44
2023-04-10T08:29:15.845Z,12.46
2023-04-10T08:29:54.788Z,12.51
2023-04-10T08:30:54.732Z,12.56
2023-04-10T08:31:54.618Z,12.48
2023-04-10T08:32:54.549Z,12.46
2023-04-10T08:33:54.659Z,12.59
2023-04-10T08:35:15.371Z,12.44
2023-04-10T08:35:54.298Z,12.48
2023-04-10T08:36:54.220Z,12.48
2023-04-10T08:38:11.845Z,12.49
2023-04-10T08:38:54.067Z,12.42
2023-04-10T08:39:53.991Z,12.42
2023-04-10T08:41:14.897Z,12.46
2023-04-10T08:41:53.888Z,12.56
2023-04-10T08:42:53.978Z,12.59
2023-04-10T08:43:53.855Z,12.53
2023-04-10T08:44:53.580Z,12.56
2023-04-10T08:45:53.600Z,12.59
2023-04-10T08:47:14.403Z,12.63
2023-04-10T08:47:53.365Z,12.64
2023-04-10T08:48:53.298Z,12.71
2023-04-10T08:49:53.478Z,12.70
2023-04-10T08:50:53.087Z,12.74
2023-04-10T08:51:53.075Z,12.94
2023-04-10T08:53:13.913Z,12.97
2023-04-10T08:53:53.173Z,13.17
2023-04-10T08:54:52.776Z,13.22
2023-04-10T08:55:52.699Z,13.07
2023-04-10T08:56:52.670Z,13.17
2023-04-10T08:58:00.708Z,12.96
2023-04-10T08:59:13.575Z,12.94
2023-04-10T08:59:52.394Z,13.06
2023-04-10T09:00:52.308Z,13.07
2023-04-10T09:01:52.271Z,13.17
2023-04-10T09:02:52.245Z,13.24
2023-04-10T09:03:52.123Z,13.25
2023-04-10T09:05:12.960Z,13.41
2023-04-10T09:05:51.902Z,13.33
2023-04-10T09:06:51.814Z,13.11
2023-04-10T09:07:51.736Z,13.21
2023-04-10T09:08:51.670Z,13.09
2023-04-10T09:09:51.579Z,13.02
2023-04-10T09:11:12.541Z,12.91
2023-04-10T09:11:51.426Z,12.88
2023-04-10T09:12:51.351Z,12.92
2023-04-10T09:13:51.249Z,13.09
2023-04-10T09:14:51.180Z,13.03
2023-04-10T09:15:51.120Z,13.15
2023-04-10T09:17:12.007Z,13.32
2023-04-10T09:17:50.960Z,13.43
2023-04-10T09:18:50.872Z,13.45
2023-04-10T09:19:50.800Z,13.40
2023-04-10T09:20:50.707Z,13.33
2023-04-10T09:21:50.633Z,13.36
2023-04-10T09:23:11.521Z,13.44
2023-04-10T09:23:50.464Z,13.40
2023-04-10T09:24:50.386Z,13.59
2023-04-10T09:25:51.298Z,13.59
2023-04-10T09:26:50.225Z,13.68
2023-04-10T09:27:50.140Z,13.83
2023-04-10T09:29:11.062Z,14.05
2023-04-10T09:29:49.984Z,13.89
2023-04-10T09:30:49.910Z,14.11
2023-04-10T09:31:49.922Z,14.17
2023-04-10T09:32:49.839Z,14.38
2023-04-10T09:33:49.668Z,14.35
2023-04-10T09:35:10.581Z,14.32
2023-04-10T09:35:49.502Z,14.28
2023-04-10T09:36:49.439Z,14.21
2023-04-10T09:37:49.360Z,14.09
2023-04-10T09:38:49.277Z,13.98
2023-04-10T09:39:49.201Z,13.92
2023-04-10T09:41:10.111Z,14.02
2023-04-10T09:41:49.063Z,13.92
2023-04-10T09:42:48.986Z,13.92
2023-04-10T09:43:48.878Z,14.09
2023-04-10T09:44:48.817Z,14.23
2023-04-10T09:45:48.741Z,14.24
2023-04-10T09:47:09.623Z,14.35
2023-04-10T09:47:48.589Z,14.44
2023-04-10T09:48:48.497Z,14.38
2023-04-10T09:49:48.470Z,14.46
2023-04-10T09:50:48.336Z,14.47
2023-04-10T09:51:48.253Z,14.35
2023-04-10T09:53:09.175Z,14.29
2023-04-10T09:53:48.147Z,14.23
2023-04-10T09:54:48.034Z,14.32
2023-04-10T09:55:47.945Z,14.34
2023-04-10T09:56:47.874Z,14.27
2023-04-10T09:57:47.778Z,14.16
2023-04-10T09:59:08.687Z,14.14
2023-04-10T09:59:47.640Z,14.21
2023-04-10T10:00:47.583Z,14.20
2023-04-10T10:01:47.529Z,14.14
2023-04-10T10:02:47.608Z,14.27
2023-04-10T10:03:47.351Z,14.14
2023-04-10T10:05:08.299Z,14.29
2023-04-10T10:05:47.155Z,14.42
2023-04-10T10:06:47.115Z,14.42
2023-04-10T10:07:46.989Z,14.52
2023-04-10T10:08:46.965Z,14.36
2023-04-10T10:09:46.835Z,14.34
2023-04-10T10:11:07.759Z,14.46
2023-04-10T10:11:46.686Z,14.57
2023-04-10T10:12:46.599Z,14.57
2023-04-10T10:13:46.513Z,14.61
2023-04-10T10:14:46.477Z,14.79
2023-04-10T10:15:46.363Z,14.75
2023-04-10T10:17:07.273Z,14.69
2023-04-10T10:17:46.240Z,14.59
2023-04-10T10:18:46.121Z,14.53
2023-04-10T10:19:46.047Z,14.61
2023-04-10T10:20:45.986Z,14.60
2023-04-10T10:21:45.952Z,14.60
2023-04-10T10:23:06.801Z,14.71
2023-04-10T10:23:45.751Z,14.69
2023-04-10T10:24:45.733Z,14.60
2023-04-10T10:25:45.574Z,14.74
2023-04-10T10:26:45.519Z,14.88
2023-04-10T10:27:45.455Z,14.83
2023-04-10T10:29:06.352Z,14.80
2023-04-10T10:29:45.263Z,14.75
2023-04-10T10:30:45.197Z,14.75
2023-04-10T10:31:45.166Z,14.79
2023-04-10T10:32:45.070Z,14.97
2023-04-10T10:33:44.953Z,14.94
2023-04-10T10:35:05.864Z,15.01
2023-04-10T10:35:44.804Z,15.08
2023-04-10T10:36:44.747Z,15.10
2023-04-10T10:37:44.649Z,15.24
2023-04-10T10:38:44.575Z,15.39
2023-04-10T10:39:44.497Z,15.49
2023-04-10T10:41:05.389Z,15.52
2023-04-10T10:41:44.337Z,15.41
2023-04-10T10:42:44.271Z,15.42
2023-04-10T10:43:44.183Z,15.43
2023-04-10T10:44:44.109Z,15.42
2023-04-10T10:45:44.035Z,15.43
2023-04-10T10:47:04.943Z,15.45
2023-04-10T10:47:43.907Z,15.60
2023-04-10T10:48:43.792Z,15.67
2023-04-10T10:49:43.705Z,15.89
2023-04-10T10:50:43.633Z,15.81
2023-04-10T10:51:43.564Z,15.88
2023-04-10T10:53:04.520Z,15.68
2023-04-10T10:53:43.405Z,15.61
2023-04-10T10:54:57.022Z,15.63
2023-04-10T10:55:43.234Z,15.63
2023-04-10T10:56:43.174Z,15.53
2023-04-10T10:57:43.084Z,15.66
2023-04-10T10:59:04.004Z,15.71
2023-04-10T10:59:42.931Z,15.73
2023-04-10T11:00:42.883Z,15.83
2023-04-10T11:01:42.867Z,15.88
2023-04-10T11:02:42.818Z,15.89
2023-04-10T11:03:42.687Z,15.76
2023-04-10T11:05:03.536Z,15.71
2023-04-10T11:05:42.462Z,15.82
2023-04-10T11:06:43.540Z,16.00
2023-04-10T11:07:42.325Z,16.10
2023-04-10T11:08:42.233Z,16.20
2023-04-10T11:09:42.156Z,16.15
2023-04-10T11:11:03.081Z,16.07
2023-04-10T11:11:42.005Z,16.04
2023-04-10T11:12:41.925Z,16.15
2023-04-10T11:13:41.861Z,16.12
2023-04-10T11:14:41.775Z,16.01
2023-04-10T11:15:41.687Z,16.06
2023-04-10T11:17:02.651Z,16.10
2023-04-10T11:17:41.587Z,16.22
2023-04-10T11:18:41.470Z,16.10
2023-04-10T11:19:41.414Z,15.88
2023-04-10T11:20:41.314Z,16.01
2023-04-10T11:21:41.231Z,15.88
2023-04-10T11:23:02.136Z,15.81
2023-04-10T11:23:41.081Z,15.70
2023-04-10T11:24:41.038Z,15.76
2023-04-10T11:25:40.930Z,15.78
2023-04-10T11:26:40.847Z,15.60
2023-04-10T11:27:40.770Z,15.57
2023-04-10T11:29:01.694Z,15.48
2023-04-10T11:29:40.614Z,15.53
2023-04-10T11:30:40.526Z,15.55
2023-04-10T11:31:40.579Z,15.61
2023-04-10T11:32:40.383Z,15.79
2023-04-10T11:33:40.402Z,15.89
2023-04-10T11:35:03.093Z,16.12
2023-04-10T11:35:40.202Z,16.18
2023-04-10T11:36:40.066Z,16.34
2023-04-10T11:37:39.996Z,16.37
2023-04-10T11:38:39.923Z,16.27
2023-04-10T11:39:39.832Z,16.16
2023-04-10T11:41:00.768Z,15.86
2023-04-10T11:41:39.689Z,15.76
2023-04-10T11:42:39.591Z,15.79
2023-04-10T11:43:39.522Z,15.78
2023-04-10T11:44:39.643Z,15.86
2023-04-10T11:45:39.405Z,15.79
2023-04-10T11:47:00.279Z,15.64
2023-04-10T11:47:39.270Z,15.48
2023-04-10T11:48:39.137Z,15.49
2023-04-10T11:49:39.073Z,15.45
2023-04-10T11:50:38.982Z,15.66
2023-04-10T11:51:38.917Z,15.75
2023-04-10T11:52:59.807Z,15.88
2023-04-10T11:53:38.745Z,15.81
2023-04-10T11:54:38.673Z,15.82
2023-04-10T11:55:38.603Z,15.88
2023-04-10T11:56:38.550Z,15.89
2023-04-10T11:57:38.449Z,15.76
2023-04-10T11:58:59.350Z,15.79
2023-04-10T11:59:38.289Z,15.91
2023-04-10T12:00:38.204Z,16.03
2023-04-10T12:01:39.299Z,16.04
2023-04-10T12:02:38.117Z,16.07
2023-04-10T12:03:38.061Z,16.12
2023-04-10T12:04:58.912Z,16.23
2023-04-10T12:05:37.829Z,16.38
2023-04-10T12:06:37.738Z,16.53
2023-04-10T12:07:37.669Z,16.77
2023-04-10T12:08:37.594Z,16.92
2023-04-10T12:09:37.552Z,16.81
2023-04-10T12:10:58.406Z,16.93
2023-04-10T12:11:37.361Z,16.95
2023-04-10T12:12:37.284Z,16.71
2023-04-10T12:13:37.219Z,16.50
2023-04-10T12:14:37.129Z,16.37
2023-04-10T12:15:37.069Z,16.23
2023-04-10T12:16:57.946Z,16.15
2023-04-10T12:17:36.920Z,16.06
2023-04-10T12:18:36.825Z,15.97
2023-04-10T12:19:36.745Z,15.88
2023-04-10T12:20:36.666Z,15.76
2023-04-10T12:21:36.606Z,15.60
2023-04-10T12:22:57.514Z,15.48
2023-04-10T12:23:36.436Z,15.49
2023-04-10T12:24:36.356Z,15.59
2023-04-10T12:25:36.320Z,15.59
2023-04-10T12:26:36.194Z,15.66
2023-04-10T12:27:36.128Z,15.70
2023-04-10T12:28:57.430Z,15.86
2023-04-10T12:29:35.982Z,16.06
2023-04-10T12:30:35.897Z,16.18
2023-04-10T12:31:35.914Z,16.08
2023-04-10T12:32:35.751Z,16.10
2023-04-10T12:33:35.669Z,16.14
2023-04-10T12:34:56.560Z,16.22
2023-04-10T12:35:35.535Z,16.23
2023-04-10T12:36:35.568Z,16.27
2023-04-10T12:37:35.354Z,16.37
2023-04-10T12:38:35.294Z,16.40
2023-04-10T12:39:35.206Z,16.48
2023-04-10T12:40:56.116Z,16.38
2023-04-10T12:41:35.068Z,16.34
2023-04-10T12:42:34.970Z,16.38
2023-04-10T12:43:34.922Z,16.27
2023-04-10T12:44:34.822Z,16.16
2023-04-10T12:45:34.778Z,16.34
2023-04-10T12:46:55.675Z,16.47
2023-04-10T12:47:34.654Z,16.60
2023-04-10T12:48:34.498Z,16.70
2023-04-10T12:49:34.432Z,16.66
2023-04-10T12:50:34.344Z,16.70
2023-04-10T12:51:34.277Z,16.55
2023-04-10T12:52:55.182Z,16.50
2023-04-10T12:53:34.129Z,16.59
2023-04-10T12:54:34.088Z,16.45
2023-04-10T12:55:33.995Z,16.34
2023-04-10T12:56:33.891Z,16.38
2023-04-10T12:57:33.840Z,16.30
2023-04-10T12:58:54.875Z,16.16
2023-04-10T12:59:33.711Z,16.29
2023-04-10T13:00:33.589Z,16.27
2023-04-10T13:01:33.541Z,16.34
2023-04-10T13:02:33.582Z,16.57
2023-04-10T13:03:33.437Z,16.47
2023-04-10T13:04:54.259Z,16.75
2023-04-10T13:05:33.191Z,16.74
2023-04-10T13:06:33.117Z,16.82
2023-04-10T13:07:33.053Z,16.67